Time;durP1;ratioP1;P1;durP2;ratioP2;P2;SDS_P1;SDS_P2;PMS_P1;PMS_P2;Temp;Humidity;BMP_temperature;BMP_pressure;BME280_temperature;BME280_humidity;BME280_pressure;Samples;Min_cycle;Max_cycle;Signal;HPM_P1;HPM_P2
2022/05/08 00:01:00;;;;;;;19.75;3.85;;;5.80;99.90;;;;;;5095736;28;20054;-45
2022/05/08 00:03:26;;;;;;;16.02;3.92;;;5.60;99.90;;;;;;5095476;28;20044;-47
2022/05/08 00:05:54;;;;;;;19.65;3.58;;;5.70;99.90;;;;;;5094072;28;20071;-45
2022/05/08 00:08:19;;;;;;;16.77;3.22;;;5.60;99.90;;;;;;5095059;28;20040;-45
2022/05/08 00:10:45;;;;;;;17.25;3.50;;;5.30;99.90;;;;;;5095403;28;20880;-45
2022/05/08 00:13:11;;;;;;;13.82;3.70;;;5.40;99.90;;;;;;5094289;28;20047;-43
2022/05/08 00:15:37;;;;;;;21.00;3.95;;;5.90;99.90;;;;;;5094069;28;20399;-44
2022/05/08 00:18:03;;;;;;;17.55;3.80;;;5.40;99.90;;;;;;5095261;28;20039;-44
2022/05/08 00:20:31;;;;;;;16.40;4.10;;;5.40;99.90;;;;;;5095024;28;20031;-45
2022/05/08 00:22:59;;;;;;;16.48;4.10;;;5.20;99.90;;;;;;5094061;28;20393;-44
2022/05/08 00:25:26;;;;;;;17.90;4.38;;;5.10;99.90;;;;;;5094049;28;20598;-44
2022/05/08 00:27:52;;;;;;;13.18;4.25;;;5.10;99.90;;;;;;5093699;28;20138;-44
2022/05/08 00:30:19;;;;;;;13.90;3.97;;;5.10;99.90;;;;;;5093628;28;20048;-45
2022/05/08 00:32:45;;;;;;;21.15;4.70;;;5.00;99.90;;;;;;5092302;28;20078;-44
2022/05/08 00:35:11;;;;;;;21.85;4.05;;;6.20;99.90;;;;;;5093299;28;20122;-45
2022/05/08 00:37:38;;;;;;;17.90;4.25;;;5.10;99.90;;;;;;5094227;28;20392;-45
2022/05/08 00:40:06;;;;;;;17.55;3.78;;;5.00;99.90;;;;;;5095004;28;20059;-43
2022/05/08 00:42:32;;;;;;;14.90;3.92;;;5.00;99.90;;;;;;5094033;28;20054;-49
2022/05/08 00:44:58;;;;;;;12.63;3.78;;;5.10;99.90;;;;;;5092077;28;20661;-48
2022/05/08 00:47:23;;;;;;;15.95;3.72;;;5.10;99.90;;;;;;5094387;28;20028;-44
2022/05/08 00:49:49;;;;;;;12.02;3.20;;;5.00;99.90;;;;;;5092791;28;20047;-47
2022/05/08 00:52:18;;;;;;;13.07;3.80;;;5.00;99.90;;;;;;5094485;28;20063;-47
2022/05/08 00:54:45;;;;;;;12.93;3.13;;;4.90;99.90;;;;;;5092408;28;20486;-49
2022/05/08 00:57:13;;;;;;;13.55;3.17;;;4.90;99.90;;;;;;5092392;28;20086;-47
2022/05/08 00:59:39;;;;;;;16.23;3.85;;;5.00;99.90;;;;;;5093578;28;21623;-46
2022/05/08 01:02:04;;;;;;;14.13;3.13;;;4.80;99.90;;;;;;5091635;28;20043;-46
2022/05/08 01:04:31;;;;;;;14.30;3.40;;;4.70;99.90;;;;;;5093346;28;20046;-48
2022/05/08 01:06:57;;;;;;;13.95;4.10;;;4.90;99.90;;;;;;5092887;28;20042;-45
2022/05/08 01:09:23;;;;;;;12.55;3.72;;;4.80;99.90;;;;;;5093926;28;20457;-49
2022/05/08 01:11:50;;;;;;;19.02;3.97;;;4.60;99.90;;;;;;5095240;28;20035;-48
2022/05/08 01:14:17;;;;;;;14.52;3.80;;;4.80;99.90;;;;;;5093590;28;20036;-45
2022/05/08 01:16:42;;;;;;;13.60;3.97;;;4.70;99.90;;;;;;5093464;28;20043;-45
2022/05/08 01:19:08;;;;;;;17.30;4.97;;;4.60;99.90;;;;;;5092934;28;21191;-46
2022/05/08 01:21:43;;;;;;;13.52;4.35;;;4.70;99.90;;;;;;5094507;28;20035;-45
2022/05/08 01:24:10;;;;;;;12.68;4.28;;;4.60;99.90;;;;;;5095080;28;20039;-47
2022/05/08 01:26:35;;;;;;;8.95;3.63;;;4.50;99.90;;;;;;5094295;28;20473;-45
2022/05/08 01:29:03;;;;;;;12.02;3.20;;;4.60;99.90;;;;;;5093951;28;20043;-45
2022/05/08 01:31:31;;;;;;;12.15;3.67;;;4.50;99.90;;;;;;5093732;28;20610;-46
2022/05/08 01:33:59;;;;;;;13.68;3.40;;;4.40;99.90;;;;;;5093584;28;20039;-48
2022/05/08 01:36:26;;;;;;;9.65;2.92;;;4.40;99.90;;;;;;5092779;28;20047;-46
2022/05/08 01:38:52;;;;;;;11.80;3.15;;;4.40;99.90;;;;;;5092930;28;20181;-46
2022/05/08 01:41:18;;;;;;;8.45;2.97;;;4.40;99.90;;;;;;5093156;28;20040;-49
2022/05/08 01:43:44;;;;;;;10.23;2.67;;;4.40;99.90;;;;;;5092891;28;20040;-49
2022/05/08 01:46:12;;;;;;;7.75;2.70;;;4.40;99.90;;;;;;5092897;28;20036;-45
2022/05/08 01:48:37;;;;;;;8.60;2.50;;;4.30;99.90;;;;;;5090488;28;20086;-49
2022/05/08 01:51:03;;;;;;;4.32;2.03;;;4.20;99.90;;;;;;5093707;28;20146;-48
2022/05/08 01:53:35;;;;;;;8.63;2.45;;;4.20;99.90;;;;;;5099772;28;20035;-48
2022/05/08 01:56:04;;;;;;;9.13;2.42;;;4.20;99.90;;;;;;5098951;28;20042;-48
2022/05/08 01:58:30;;;;;;;9.30;3.30;;;4.10;99.90;;;;;;5099084;28;20039;-47
2022/05/08 02:00:58;;;;;;;8.68;2.20;;;4.20;99.90;;;;;;5098359;27;20051;-50
2022/05/08 02:03:25;;;;;;;11.13;3.22;;;;;;;;;;5099763;28;20147;-51
2022/05/08 02:05:51;;;;;;;5.03;2.08;;;4.00;99.90;;;;;;5099402;27;20036;-46
2022/05/08 02:08:19;;;;;;;7.82;2.30;;;4.20;99.90;;;;;;5098797;27;20039;-49
2022/05/08 02:10:45;;;;;;;8.45;2.40;;;;;;;;;;5099485;28;20039;-45
2022/05/08 02:13:12;;;;;;;12.80;2.50;;;4.10;99.90;;;;;;5099103;28;20100;-44
2022/05/08 02:15:39;;;;;;;14.63;3.08;;;3.90;99.90;;;;;;5099528;27;20040;-46
2022/05/08 02:18:07;;;;;;;16.05;3.40;;;4.10;99.90;;;;;;5100219;28;20043;-45
2022/05/08 02:20:34;;;;;;;13.60;4.07;;;4.00;99.90;;;;;;5100016;28;20066;-43
2022/05/08 02:23:00;;;;;;;7.60;2.90;;;;;;;;;;5100521;28;20724;-45
2022/05/08 02:25:26;;;;;;;16.88;4.53;;;4.00;99.90;;;;;;5101610;28;20120;-49
2022/05/08 02:27:52;;;;;;;32.05;9.95;;;3.90;99.90;;;;;;5099386;27;20145;-47
2022/05/08 02:30:20;;;;;;;67.60;19.38;;;3.60;99.90;;;;;;5099814;28;20043;-46
2022/05/08 02:32:46;;;;;;;37.00;10.48;;;;;;;;;;5100547;28;20044;-44
2022/05/08 02:35:12;;;;;;;21.92;7.50;;;3.70;99.90;;;;;;5100150;28;20566;-45
2022/05/08 02:37:39;;;;;;;59.35;18.52;;;3.70;99.90;;;;;;5100182;28;20036;-45
2022/05/08 02:40:08;;;;;;;14.30;3.67;;;3.60;99.90;;;;;;5098635;28;20459;-46
2022/05/08 02:42:35;;;;;;;11.60;3.25;;;3.50;99.90;;;;;;5098054;28;20170;-47
2022/05/08 02:45:03;;;;;;;11.82;3.92;;;3.50;99.90;;;;;;5099345;28;20473;-46
2022/05/08 02:47:30;;;;;;;9.07;2.83;;;;;;;;;;5099220;28;20039;-46
2022/05/08 02:49:56;;;;;;;15.90;4.32;;;;;;;;;;5099365;28;20052;-46
2022/05/08 02:52:24;;;;;;;13.95;4.45;;;3.40;99.90;;;;;;5100565;28;20047;-46
2022/05/08 02:54:50;;;;;;;18.00;5.75;;;3.50;99.90;;;;;;5099805;28;20120;-45
2022/05/08 03:00:06;;;;;;;17.25;6.28;;;3.30;99.90;;;;;;5054489;28;20079;-48
2022/05/08 03:02:35;;;;;;;24.38;7.55;;;3.30;99.90;;;;;;5035828;28;20048;-45
2022/05/08 03:05:01;;;;;;;18.98;6.75;;;3.40;99.90;;;;;;5050070;28;20060;-45
2022/05/08 03:07:27;;;;;;;18.10;6.50;;;;;;;;;;5053204;28;20051;-46
2022/05/08 03:09:53;;;;;;;21.08;7.43;;;;;;;;;;5051503;28;20510;-49
2022/05/08 03:12:19;;;;;;;17.15;6.00;;;;;;;;;;5051778;28;20045;-48
2022/05/08 03:14:45;;;;;;;20.52;6.20;;;;;;;;;;5052332;28;20501;-48
2022/05/08 03:17:13;;;;;;;16.38;6.93;;;3.30;99.90;;;;;;5052755;28;20545;-46
2022/05/08 03:19:39;;;;;;;23.95;7.47;;;;;;;;;;5051514;28;20056;-48
2022/05/08 03:22:06;;;;;;;19.00;6.00;;;3.20;99.90;;;;;;5051842;28;20131;-48
2022/05/08 03:24:32;;;;;;;18.00;5.95;;;;;;;;;;5051844;28;20056;-47
2022/05/08 03:27:00;;;;;;;23.35;6.60;;;3.20;99.90;;;;;;5051123;28;20047;-46
2022/05/08 03:29:26;;;;;;;33.83;9.60;;;;;;;;;;5052476;28;20040;-46
2022/05/08 03:31:52;;;;;;;38.53;12.15;;;;;;;;;;5035522;28;20167;-50
2022/05/08 03:34:19;;;;;;;36.35;9.93;;;;;;;;;;5051581;28;20414;-50
2022/05/08 03:36:45;;;;;;;56.53;15.32;;;;;;;;;;5064319;28;20592;-46
2022/05/08 03:39:13;;;;;;;48.85;13.23;;;2.90;99.90;;;;;;5095492;28;20805;-49
2022/05/08 03:41:39;;;;;;;46.78;14.95;;;;;;;;;;5095983;28;20044;-49
2022/05/08 03:44:05;;;;;;;55.17;14.23;;;;;;;;;;5095966;28;20042;-48
2022/05/08 03:46:31;;;;;;;44.38;12.68;;;3.10;99.90;;;;;;5095502;28;20035;-48
2022/05/08 03:49:00;;;;;;;31.58;11.13;;;3.00;99.90;;;;;;5095421;28;20062;-49
2022/05/08 03:51:26;;;;;;;31.20;9.32;;;;;;;;;;5095591;28;20718;-48
2022/05/08 03:53:52;;;;;;;36.65;10.85;;;;;;;;;;5096579;28;20040;-47
2022/05/08 03:56:18;;;;;;;37.55;11.07;;;;;;;;;;5095599;28;20043;-45
2022/05/08 03:58:44;;;;;;;23.58;7.70;;;;;;;;;;5093727;28;20055;-46
2022/05/08 04:01:10;;;;;;;14.88;4.82;;;;;;;;;;5094080;28;20046;-46
2022/05/08 04:03:36;;;;;;;17.75;4.97;;;;;;;;;;5095829;28;20043;-48
2022/05/08 04:06:03;;;;;;;10.75;4.10;;;3.00;99.90;;;;;;5094951;28;20043;-46
2022/05/08 04:08:30;;;;;;;10.02;2.72;;;;;;;;;;5094896;28;20119;-50
2022/05/08 04:10:56;;;;;;;8.25;2.20;;;;;;;;;;5094161;28;20046;-46
2022/05/08 04:13:23;;;;;;;9.57;2.60;;;3.00;99.90;;;;;;5094422;28;20090;-48
2022/05/08 04:18:36;;;;;;;7.35;2.83;;;2.90;99.90;;;;;;5093077;28;20059;-47
2022/05/08 04:21:02;;;;;;;13.52;2.97;;;;;;;;;;5094091;28;20046;-46
2022/05/08 04:26:13;;;;;;;9.68;2.78;;;;;;;;;;5093351;28;20047;-48
2022/05/08 04:28:39;;;;;;;11.80;3.83;;;;;;;;;;5093661;28;20047;-45
2022/05/08 04:31:04;;;;;;;14.68;4.78;;;3.50;99.90;;;;;;5093777;28;20039;-46
2022/05/08 04:33:30;;;;;;;11.63;2.78;;;;;;;;;;5094008;28;20046;-45
2022/05/08 04:35:56;;;;;;;10.40;3.53;;;;;;;;;;5093780;28;20062;-49
2022/05/08 04:38:22;;;;;;;9.15;3.40;;;3.90;99.90;;;;;;5093268;28;20134;-46
2022/05/08 04:40:48;;;;;;;10.63;3.75;;;;;;;;;;5093798;28;20574;-48
2022/05/08 04:43:14;;;;;;;11.68;3.42;;;;;;;;;;5094501;28;20059;-46
2022/05/08 04:45:40;;;;;;;12.98;4.22;;;;;;;;;;5093157;28;20066;-47
2022/05/08 04:48:08;;;;;;;11.63;3.47;;;4.30;99.90;;;;;;5092546;28;20592;-47
2022/05/08 04:50:34;;;;;;;10.50;3.33;;;4.40;99.90;;;;;;5091952;28;20138;-46
2022/05/08 04:53:00;;;;;;;10.00;3.80;;;4.80;99.90;;;;;;5094163;28;20058;-46
2022/05/08 04:55:28;;;;;;;11.68;3.65;;;4.90;99.90;;;;;;5093452;28;20039;-45
2022/05/08 04:57:53;;;;;;;17.80;4.32;;;5.10;99.90;;;;;;5092811;28;20617;-44
2022/05/08 05:00:19;;;;;;;12.25;3.92;;;5.20;99.90;;;;;;5093372;28;20045;-46
2022/05/08 05:02:45;;;;;;;11.32;4.32;;;5.40;99.90;;;;;;5092961;28;20039;-43
2022/05/08 05:05:11;;;;;;;14.73;3.70;;;5.80;99.90;;;;;;5091302;28;20067;-44
2022/05/08 05:07:39;;;;;;;10.65;3.83;;;5.80;99.90;;;;;;5093418;28;20112;-50
2022/05/08 05:10:06;;;;;;;13.15;4.00;;;6.00;99.90;;;;;;5092947;28;20036;-48
2022/05/08 05:12:32;;;;;;;12.63;3.78;;;6.20;99.90;;;;;;5094059;28;20395;-48
2022/05/08 05:14:59;;;;;;;12.05;4.10;;;6.40;99.90;;;;;;5092340;28;20074;-46
2022/05/08 05:17:25;;;;;;;10.93;3.95;;;6.40;99.90;;;;;;5092662;28;20035;-50
2022/05/08 05:19:51;;;;;;;13.32;3.58;;;6.60;99.90;;;;;;5093766;28;20055;-45
2022/05/08 05:22:21;;;;;;;14.02;3.08;;;6.80;99.90;;;;;;5092857;28;20035;-48
2022/05/08 05:24:47;;;;;;;10.02;3.33;;;6.70;99.90;;;;;;5094075;28;20599;-47
2022/05/08 05:27:12;;;;;;;12.05;3.58;;;8.00;99.90;;;;;;5091143;28;20028;-48
2022/05/08 05:29:38;;;;;;;12.68;3.47;;;7.10;99.90;;;;;;5092670;28;20134;-45
2022/05/08 05:32:06;;;;;;;9.35;3.45;;;8.30;99.90;;;;;;5092516;28;20491;-46
2022/05/08 05:34:32;;;;;;;11.02;2.75;;;7.20;99.90;;;;;;5092789;28;20537;-49
2022/05/08 05:36:57;;;;;;;13.43;2.55;;;7.50;99.90;;;;;;5092781;28;20583;-46
2022/05/08 05:39:26;;;;;;;11.40;2.85;;;7.60;99.90;;;;;;5092617;28;20378;-45
2022/05/08 05:41:52;;;;;;;11.48;2.78;;;7.80;99.90;;;;;;5092317;28;20036;-45
2022/05/08 05:44:18;;;;;;;12.85;2.38;;;7.90;99.90;;;;;;5091477;28;20035;-44
2022/05/08 05:49:31;;;;;;;11.40;2.45;;;8.40;99.90;;;;;;5091841;28;20086;-49
2022/05/08 05:51:57;;;;;;;11.55;2.35;;;8.20;99.90;;;;;;5092435;28;20044;-45
2022/05/08 05:54:24;;;;;;;14.05;2.60;;;8.90;99.90;;;;;;5092569;28;20081;-45
2022/05/08 05:56:52;;;;;;;11.35;2.33;;;8.30;99.90;;;;;;5091360;28;20050;-45
2022/05/08 05:59:18;;;;;;;13.50;2.75;;;8.30;99.90;;;;;;5091148;28;20039;-45
2022/05/08 06:01:44;;;;;;;11.23;2.33;;;8.40;99.90;;;;;;5090900;28;20090;-50
2022/05/08 06:04:09;;;;;;;10.38;2.58;;;8.50;99.90;;;;;;5090244;28;20126;-44
2022/05/08 06:06:37;;;;;;;12.07;2.65;;;8.60;99.90;;;;;;5091505;28;20043;-47
2022/05/08 06:09:02;;;;;;;9.10;2.33;;;8.70;99.90;;;;;;5091355;28;20039;-46
2022/05/08 06:11:28;;;;;;;10.05;2.42;;;9.00;99.90;;;;;;5091857;28;20048;-49
2022/05/08 06:13:54;;;;;;;10.88;2.20;;;9.70;99.90;;;;;;5092800;28;20675;-47
2022/05/08 06:16:19;;;;;;;9.65;2.17;;;9.30;99.90;;;;;;5090686;28;20043;-46
2022/05/08 06:18:45;;;;;;;15.73;3.25;;;9.50;99.90;;;;;;5091813;28;20042;-48
2022/05/08 06:21:11;;;;;;;9.55;2.00;;;9.70;99.90;;;;;;5091755;28;20035;-44
2022/05/08 06:23:37;;;;;;;13.80;1.98;;;10.10;99.90;;;;;;5093554;28;20176;-49
2022/05/08 06:26:03;;;;;;;11.52;2.38;;;12.50;99.90;;;;;;5091999;28;20047;-49
2022/05/08 06:28:31;;;;;;;11.40;2.35;;;10.70;99.90;;;;;;5092334;28;20039;-45
2022/05/08 06:30:58;;;;;;;8.10;2.17;;;10.60;99.90;;;;;;5092907;28;20047;-45
2022/05/08 06:33:24;;;;;;;10.13;2.15;;;10.60;99.90;;;;;;5092622;28;20082;-44
2022/05/08 06:35:50;;;;;;;11.73;1.95;;;11.90;99.90;;;;;;5092410;28;20031;-47
2022/05/08 06:38:15;;;;;;;10.65;1.80;;;10.40;99.90;;;;;;5094609;28;20491;-44
2022/05/08 06:40:42;;;;;;;11.25;1.90;;;10.80;99.90;;;;;;5096071;28;20100;-45
2022/05/08 06:43:08;;;;;;;12.05;1.65;;;10.50;99.90;;;;;;5096636;28;20054;-45
2022/05/08 06:45:36;;;;;;;12.07;2.47;;;10.60;99.90;;;;;;5096050;28;20065;-44
2022/05/08 06:48:06;;;;;;;10.00;1.92;;;12.50;99.90;;;;;;5095931;28;20755;-44
2022/05/08 06:50:33;;;;;;;9.85;2.20;;;10.60;99.90;;;;;;5095061;28;20051;-43
2022/05/08 06:52:59;;;;;;;13.35;1.90;;;10.50;99.90;;;;;;5096923;28;20054;-43
2022/05/08 06:55:27;;;;;;;11.25;1.75;;;12.10;99.90;;;;;;5096592;28;20055;-44
2022/05/08 06:57:52;;;;;;;8.75;1.70;;;11.20;99.90;;;;;;5095697;28;20683;-46
2022/05/08 07:03:07;;;;;;;10.35;1.80;;;10.30;99.90;;;;;;5095261;28;20516;-45
2022/05/08 07:05:37;;;;;;;15.63;2.10;;;11.90;99.90;;;;;;5096169;28;20325;-48
2022/05/08 07:08:03;;;;;;;9.30;2.13;;;10.70;99.90;;;;;;5094343;28;20059;-46
2022/05/08 07:10:28;;;;;;;11.00;1.95;;;10.70;99.90;;;;;;5093248;28;20126;-45
2022/05/08 07:12:56;;;;;;;10.45;1.70;;;10.80;99.90;;;;;;5092997;27;20059;-44
2022/05/08 07:15:22;;;;;;;5.90;1.55;;;12.30;99.90;;;;;;5094536;28;20134;-44
2022/05/08 07:17:49;;;;;;;8.40;1.70;;;11.40;99.90;;;;;;5093252;28;20050;-47
2022/05/08 07:20:15;;;;;;;9.75;1.83;;;11.40;99.90;;;;;;5092879;28;20094;-45
2022/05/08 07:22:41;;;;;;;11.32;2.17;;;11.50;99.90;;;;;;5094646;28;20577;-46
2022/05/08 07:25:07;;;;;;;12.85;2.22;;;11.70;99.90;;;;;;5095537;28;20035;-45
2022/05/08 07:27:39;;;;;;;9.10;1.77;;;11.80;99.90;;;;;;5095109;28;20042;-48
2022/05/08 07:30:05;;;;;;;;;;;11.70;99.90;;;;;;5094831;28;20146;-45
2022/05/08 07:32:31;;;;;;;13.30;2.00;;;11.70;99.90;;;;;;5095844;28;19931;-45
2022/05/08 07:37:43;;;;;;;9.80;1.75;;;11.90;99.90;;;;;;5094884;28;20051;-44
2022/05/08 07:40:10;;;;;;;11.00;3.05;;;13.60;99.90;;;;;;5093180;28;20084;-44
2022/05/08 07:42:36;;;;;;;13.30;1.90;;;12.60;99.90;;;;;;5092782;28;20082;-46
2022/05/08 07:45:02;;;;;;;9.57;1.80;;;13.30;99.90;;;;;;5094373;28;20969;-45
2022/05/08 07:47:28;;;;;;;9.60;2.25;;;13.80;99.90;;;;;;5093192;28;20054;-45
2022/05/08 07:49:53;;;;;;;10.15;1.70;;;13.60;99.90;;;;;;5074767;28;20056;-44
2022/05/08 07:52:19;;;;;;;13.80;2.10;;;15.00;99.90;;;;;;5095638;28;20134;-44
2022/05/08 07:54:45;;;;;;;9.20;1.70;;;13.10;99.90;;;;;;5096306;28;20127;-45
2022/05/08 07:57:10;;;;;;;20.27;2.25;;;15.30;99.90;;;;;;5096034;28;20105;-43
2022/05/08 07:59:38;;;;;;;8.88;1.90;;;14.40;99.90;;;;;;5094456;28;20050;-44
2022/05/08 08:02:04;;;;;;;10.82;2.65;;;15.40;99.90;;;;;;5094544;28;20035;-45
2022/05/08 08:04:31;;;;;;;9.23;2.08;;;17.00;99.90;;;;;;5094344;28;20039;-45
2022/05/08 08:06:57;;;;;;;11.70;2.20;;;16.10;99.90;;;;;;5094172;28;20147;-44
2022/05/08 08:09:23;;;;;;;12.07;3.30;;;16.70;99.90;;;;;;5093993;28;20078;-44
2022/05/08 08:11:49;;;;;;;405.25;378.20;;;16.20;99.90;;;;;;5094086;28;20679;-43
2022/05/08 08:14:15;;;;;;;355.23;328.02;;;16.20;99.90;;;;;;5095424;28;20075;-42
2022/05/08 08:16:41;;;;;;;533.55;492.45;;;15.30;99.90;;;;;;5094647;28;20040;-47
2022/05/08 08:19:07;;;;;;;355.38;330.52;;;15.40;99.90;;;;;;5094335;28;20063;-45
2022/05/08 08:21:33;;;;;;;271.35;255.13;;;15.80;99.90;;;;;;5092096;28;20044;-49
2022/05/08 08:23:59;;;;;;;313.25;293.58;;;15.50;99.90;;;;;;5095183;28;20051;-44
2022/05/08 08:26:28;;;;;;;786.53;657.80;;;14.90;99.90;;;;;;5093828;28;20040;-46
2022/05/08 08:28:54;;;;;;;356.98;319.92;;;16.70;99.90;;;;;;5093643;28;20070;-47
2022/05/08 08:31:20;;;;;;;346.65;322.55;;;15.30;99.90;;;;;;5092970;28;20123;-44
2022/05/08 08:33:46;;;;;;;386.27;359.20;;;15.60;99.90;;;;;;5093252;28;20119;-44
2022/05/08 08:36:11;;;;;;;462.20;425.40;;;16.20;99.90;;;;;;5092156;28;21225;-46
2022/05/08 08:38:38;;;;;;;336.58;315.00;;;16.20;99.90;;;;;;5093412;28;20038;-46
2022/05/08 08:41:06;;;;;;;383.08;357.60;;;16.30;99.90;;;;;;5092492;28;20027;-46
2022/05/08 08:49:25;;;;;;;188.18;169.13;;;15.60;99.90;;;;;;5092318;28;20054;-46
2022/05/08 08:51:54;;;;;;;10.63;4.43;;;17.60;99.90;;;;;;5092800;28;20742;-44
2022/05/08 08:54:21;;;;;;;80.88;64.25;;;15.30;99.90;;;;;;5094895;28;20058;-44
2022/05/08 08:56:50;;;;;;;13.00;3.58;;;16.50;99.90;;;;;;5093429;28;20506;-44
2022/05/08 08:59:16;;;;;;;452.33;411.60;;;15.40;99.90;;;;;;5093386;28;20039;-44
2022/05/08 09:01:43;;;;;;;430.38;393.02;;;17.40;99.90;;;;;;5091535;28;20043;-43
2022/05/08 09:04:10;;;;;;;482.13;446.48;;;16.70;99.90;;;;;;5094668;28;20032;-44
2022/05/08 09:06:44;;;;;;;351.67;327.50;;;16.80;99.90;;;;;;5094198;28;20041;-45
2022/05/08 09:09:31;;;;;;;490.85;451.77;;;17.40;99.90;;;;;;5093929;28;20074;-48
2022/05/08 09:11:59;;;;;;;153.70;138.02;;;16.40;99.90;;;;;;5094547;28;20122;-46
2022/05/08 09:14:33;;;;;;;391.52;363.05;;;15.90;99.90;;;;;;5093591;27;20138;-49
2022/05/08 09:17:00;;;;;;;494.38;454.30;;;15.30;99.90;;;;;;5094106;28;20027;-48
2022/05/08 09:19:43;;;;;;;303.80;285.52;;;16.20;99.90;;;;;;5092993;28;20527;-45
2022/05/08 09:22:12;;;;;;;575.85;528.33;;;18.70;99.90;;;;;;5092900;28;20496;-46
2022/05/08 09:24:54;;;;;;;363.98;337.80;;;17.80;99.90;;;;;;5095223;28;20943;-43
2022/05/08 09:27:22;;;;;;;676.77;616.47;;;16.70;99.90;;;;;;5094277;28;20086;-49
2022/05/08 09:29:48;;;;;;;369.40;345.25;;;18.10;99.90;;;;;;5094056;28;20051;-47
2022/05/08 09:32:41;;;;;;;27.05;20.63;;;16.10;99.90;;;;;;5093355;28;20063;-46
2022/05/08 09:35:07;;;;;;;295.50;265.48;;;16.00;99.90;;;;;;5091680;28;20684;-45
2022/05/08 09:37:33;;;;;;;396.42;365.77;;;15.50;99.90;;;;;;5091610;28;20523;-45
2022/05/08 09:40:15;;;;;;;370.58;345.77;;;15.70;99.90;;;;;;5090581;28;20064;-46
2022/05/08 09:42:41;;;;;;;340.30;317.33;;;17.70;99.90;;;;;;5091634;28;20051;-50
2022/05/08 09:45:08;;;;;;;251.85;235.88;;;17.80;99.90;;;;;;5092380;28;20035;-46
2022/05/08 09:47:49;;;;;;;472.33;436.77;;;15.60;99.90;;;;;;5093327;28;20043;-45
2022/05/08 09:50:18;;;;;;;334.90;313.95;;;15.60;99.90;;;;;;5090461;28;20090;-45
2022/05/08 09:52:45;;;;;;;436.48;398.13;;;15.80;99.90;;;;;;5093340;28;20040;-45
2022/05/08 09:55:13;;;;;;;332.65;311.13;;;16.90;99.90;;;;;;5093638;28;20445;-45
2022/05/08 09:57:39;;;;;;;532.35;492.17;;;15.60;99.90;;;;;;5086768;28;20043;-45
2022/05/08 10:00:06;;;;;;;396.00;370.20;;;15.50;99.90;;;;;;5093714;28;20046;-48
2022/05/08 10:02:32;;;;;;;370.60;345.98;;;15.20;99.90;;;;;;5092392;28;20067;-45
2022/05/08 10:04:58;;;;;;;375.10;349.92;;;17.60;99.90;;;;;;5092025;28;20537;-48
2022/05/08 10:07:26;;;;;;;436.45;402.70;;;16.90;99.90;;;;;;5093971;28;20146;-45
2022/05/08 10:15:30;;;;;;;626.17;575.67;;;15.40;99.90;;;;;;5097298;28;20514;-45
2022/05/08 10:18:24;;;;;;;558.25;513.05;;;15.40;99.90;;;;;;5096782;28;20036;-46
2022/05/08 10:21:04;;;;;;;476.83;443.13;;;15.30;99.90;;;;;;5095562;28;20690;-46
2022/05/08 10:23:37;;;;;;;740.00;671.75;;;15.50;99.90;;;;;;5098432;28;20040;-49
2022/05/08 10:26:23;;;;;;;473.00;342.45;;;15.90;99.90;;;;;;5097708;28;20790;-45
2022/05/08 10:29:04;;;;;;;11.15;1.83;;;15.70;99.90;;;;;;5095442;28;20108;-45
2022/05/08 10:31:46;;;;;;;496.75;458.30;;;15.70;99.90;;;;;;5095918;28;20043;-45
2022/05/08 10:34:13;;;;;;;448.00;413.15;;;15.60;99.90;;;;;;5096033;28;20060;-44
2022/05/08 10:36:42;;;;;;;468.10;436.88;;;16.10;99.90;;;;;;5092592;28;20056;-45
2022/05/08 10:39:47;;;;;;;626.35;572.15;;;16.10;99.90;;;;;;5096166;28;20032;-45
2022/05/08 10:42:27;;;;;;;681.67;616.55;;;15.20;99.90;;;;;;5096004;28;20046;-43
2022/05/08 10:44:54;;;;;;;618.60;407.60;;;15.20;99.90;;;;;;5094593;28;20050;-44
2022/05/08 10:47:40;;;;;;;680.20;618.13;;;15.30;99.90;;;;;;5096819;28;20112;-45
2022/05/08 10:50:13;;;;;;;78.82;69.68;;;16.90;99.90;;;;;;5096141;28;20058;-48
2022/05/08 10:52:43;;;;;;;565.75;283.00;;;16.10;99.90;;;;;;5091762;28;20522;-42
2022/05/08 10:55:17;;;;;;;185.38;126.07;;;18.00;99.90;;;;;;5097089;28;20043;-42
2022/05/08 10:57:49;;;;;;;425.25;385.02;;;15.90;99.90;;;;;;5094421;28;20060;-43
2022/05/08 11:00:41;;;;;;;439.00;398.73;;;15.90;99.90;;;;;;5093981;28;20039;-43
2022/05/08 11:03:06;;;;;;;542.50;428.33;;;15.90;99.90;;;;;;5092615;28;20051;-44
2022/05/08 11:05:36;;;;;;;82.75;71.03;;;15.80;99.90;;;;;;5094427;28;20646;-46
2022/05/08 11:08:07;;;;;;;695.88;626.05;;;17.10;99.90;;;;;;5095633;28;20595;-46
2022/05/08 11:10:35;;;;;;;487.63;450.48;;;16.30;99.90;;;;;;5088243;28;20036;-44
2022/05/08 11:13:03;;;;;;;422.15;391.63;;;17.50;99.90;;;;;;5094681;28;20035;-43
2022/05/08 11:15:36;;;;;;;455.00;422.40;;;15.90;99.90;;;;;;5095561;28;20333;-44
2022/05/08 11:18:09;;;;;;;651.70;600.05;;;15.70;99.90;;;;;;5095773;28;20035;-43
2022/05/08 11:20:45;;;;;;;521.83;470.67;;;15.80;99.90;;;;;;5096264;28;20054;-45
2022/05/08 11:23:15;;;;;;;615.25;510.08;;;16.80;99.90;;;;;;5093549;28;20031;-43
2022/05/08 11:25:47;;;;;;;91.95;65.57;;;15.80;99.90;;;;;;5093035;28;20495;-44
2022/05/08 11:28:14;;;;;;;365.85;213.63;;;16.30;99.90;;;;;;5093180;28;20043;-45
2022/05/08 11:30:40;;;;;;;567.55;516.00;;;16.30;99.90;;;;;;5096043;28;20039;-46
2022/05/08 11:36:08;;;;;;;528.08;480.67;;;16.40;99.90;;;;;;5093330;28;20044;-44
2022/05/08 11:38:53;;;;;;;698.72;509.98;;;17.10;99.90;;;;;;5094819;28;20552;-47
2022/05/08 11:41:20;;;;;;;19.85;9.82;;;16.20;99.90;;;;;;5092363;28;20040;-47
2022/05/08 11:43:49;;;;;;;14.07;10.05;;;16.50;99.90;;;;;;5094211;28;20546;-47
2022/05/08 11:46:20;;;;;;;558.42;381.13;;;16.60;99.90;;;;;;5093545;28;20690;-47
2022/05/08 11:48:47;;;;;;;420.48;390.73;;;18.40;99.90;;;;;;5095575;28;20600;-45
2022/05/08 11:51:20;;;;;;;172.93;133.02;;;18.70;98.80;;;;;;5096547;28;20138;-45
2022/05/08 11:53:50;;;;;;;129.57;93.88;;;16.90;97.20;;;;;;5095887;28;20036;-46
2022/05/08 11:56:23;;;;;;;483.08;443.90;;;17.90;98.60;;;;;;5097022;28;20814;-45
2022/05/08 11:58:50;;;;;;;127.05;111.18;;;16.20;99.90;;;;;;5095892;28;20048;-43
2022/05/08 12:01:33;;;;;;;522.40;467.63;;;16.00;98.70;;;;;;5095625;28;20884;-47
2022/05/08 12:04:26;;;;;;;432.75;404.75;;;15.80;99.00;;;;;;5094844;28;20104;-44
2022/05/08 12:06:55;;;;;;;749.75;634.10;;;15.80;99.90;;;;;;5032514;28;20056;-47
2022/05/08 12:09:21;;;;;;;604.08;556.75;;;14.60;99.90;;;;;;5033067;28;20509;-44
2022/05/08 12:11:47;;;;;;;461.08;423.20;;;16.20;99.90;;;;;;5015147;28;20060;-45
2022/05/08 12:14:15;;;;;;;505.63;461.27;;;16.40;99.90;;;;;;4998896;28;20045;-46
2022/05/08 12:17:00;;;;;;;628.72;574.45;;;16.90;99.90;;;;;;5033108;28;20075;-48
2022/05/08 12:19:25;;;;;;;489.58;452.60;;;15.90;99.90;;;;;;5031672;28;20074;-43
2022/05/08 12:21:51;;;;;;;535.25;494.83;;;16.80;99.90;;;;;;5030809;28;20044;-43
2022/05/08 12:24:17;;;;;;;471.27;437.35;;;17.50;99.90;;;;;;5028866;28;20056;-45
2022/05/08 12:26:44;;;;;;;907.47;800.55;;;16.10;99.90;;;;;;5031028;28;20037;-45
2022/05/08 12:29:23;;;;;;;820.85;725.45;;;17.00;99.90;;;;;;5029936;28;20048;-43
2022/05/08 12:31:52;;;;;;;958.45;776.25;;;15.70;99.90;;;;;;5031713;28;20049;-46
2022/05/08 12:34:21;;;;;;;413.05;383.13;;;15.80;99.90;;;;;;5030744;28;20072;-45
2022/05/08 12:36:50;;;;;;;736.40;658.38;;;15.60;99.90;;;;;;5029773;28;20045;-48
2022/05/08 12:39:17;;;;;;;364.13;340.05;;;15.60;99.90;;;;;;5030647;28;20068;-44
2022/05/08 12:41:43;;;;;;;556.30;510.70;;;16.20;99.90;;;;;;5028917;28;20639;-45
2022/05/08 12:44:09;;;;;;;274.73;258.00;;;17.30;99.90;;;;;;5069889;28;20692;-46
2022/05/08 12:46:35;;;;;;;850.47;759.20;;;15.50;99.90;;;;;;5091986;28;20388;-48
2022/05/08 12:49:04;;;;;;;779.72;693.88;;;15.50;99.90;;;;;;5090667;28;20047;-45
2022/05/08 12:51:35;;;;;;;75.65;55.45;;;15.80;99.90;;;;;;5087356;28;20044;-49
2022/05/08 12:54:03;;;;;;;14.70;7.05;;;15.80;99.90;;;;;;5091898;28;20396;-49
2022/05/08 12:56:30;;;;;;;12.43;2.60;;;16.90;99.90;;;;;;5094454;28;20063;-44
2022/05/08 13:01:41;;;;;;;787.85;697.53;;;18.30;99.90;;;;;;5093872;28;20050;-46
2022/05/08 13:04:07;;;;;;;628.90;575.97;;;16.30;99.90;;;;;;5092886;28;20031;-44
2022/05/08 13:06:34;;;;;;;551.05;506.20;;;16.20;99.90;;;;;;5093536;28;20044;-44
2022/05/08 13:09:00;;;;;;;405.77;376.48;;;18.20;99.90;;;;;;5093159;28;20121;-44
2022/05/08 13:11:27;;;;;;;768.40;548.05;;;16.80;99.90;;;;;;5091917;28;20036;-49
2022/05/08 13:13:53;;;;;;;253.15;212.55;;;15.90;99.90;;;;;;5094185;28;20500;-45
2022/05/08 13:16:18;;;;;;;999.80;787.70;;;16.70;99.90;;;;;;5092182;28;20050;-46
2022/05/08 13:18:44;;;;;;;177.73;120.20;;;15.90;99.90;;;;;;5093461;28;20040;-46
2022/05/08 13:21:10;;;;;;;546.88;502.55;;;15.90;99.90;;;;;;5092260;28;20165;-43